Lingle, WY

9:46 AM MDT on May 24, 2015 (GMT -0600)
Heilig | | Change Station
CLOSE
Current Station
Airport
Location: Scottsbluff,
Elevation: 3957 ft
Nearby Weather Stations
Active Advisory: Flood Warning

Elev 3957 ft 41.87 °N, 103.60 °W | Updated 53 minutes ago

Mostly Cloudy
Mostly Cloudy
55 °F
Feels Like 55 °F
N
0
Wind Variable Wind from North

Today
High -- | Low -- °F
--% Chance of Precip.
Yesterday
High -- | Low -- °F
Precip. -- in
5:28 AM 8:20 PM
Waxing Crescent, 40% visible
Pressure 29.88 in
Visibility 10.0 miles
Clouds Few 1200 ft
Mostly Cloudy 2300 ft
Mostly Cloudy 3000 ft
Dew Point 50 °F
Humidity 82%
Rainfall 0.08 in
Snow Depth Not available.
UV 3 out of 12
Pollen 1.80 out of 12
Air Quality Not available.
Flu Activity Sporadic
METAR KBFF 241453Z AUTO 00000KT 10SM FEW012 BKN023 BKN030 13/10 A2988

More Conditions Fewer Conditions

Pressure 29.88 in
Visibility 10.0 miles
Clouds Few 1200 ft
Mostly Cloudy 2300 ft
Mostly Cloudy 3000 ft
Dew Point 50 °F
Humidity 82%
Rainfall 0.08 in
Snow Depth Not available.
UV 3 out of 12
Pollen 1.80 out of 12
Air Quality Not available.
Flu Activity Sporadic
METAR KBFF 241453Z AUTO 00000KT 10SM FEW012 BKN023 BKN030 13/10 A2988

More Conditions Fewer Conditions

10-Day Weather Forecast

Almanac

Astronomy

May. 24, 2015 Rise Set
Actual Time
Civil Twilight
Nautical Twilight
Astronomical Twilight
Moon
Length of Visible Light
Length of Day
Tomorrow will be .
, % of the Moon is Illuminated

Today's Extremes

State Highs State Lows

Community

WunderPhotos

Upload Photos

1,823,779 photos uploaded!

WunderBlogs® & News

Nearby

Air Quality

  Air Quality AQ Index Pollutant
Not available.

Snow Depth

Station Depth Elevation

Earthquake Activity

City Distance Mag. Time & Date
Minimum magnitude displayed is 2.5.

Coastal Water Temperatures

Place Temperature

Stations

Nearby Weather Stations

Station Location Temp. Windchill Dew Point Humidity Wind Precip. Elev Updated Type
                   
Flood Warning
Statement as of 8:48 PM MDT on May 23, 2015

* Flood Warning continues for
the Laramie river near Fort Laramie
* the stage will crest around 7.6 feet at around 6 am Tuesday.
* The stage will fall below flood stage next weekend.


Flood impacts and crest history information is displayed at:
http:///water.Weather.Gov/ahps2/index.Php?Wfo=cys&gage=flaw4

* impact... at 8.0 feet... water reaches the base of the bridge of
Highway 160 immediately west of The Fort Laramie State Park
property (about 1.5 miles upstream from the gage).
* Flood history... this crest compares to a previous crest of 7.5 feet
on Jun 11 1995.


Lat... Lon 4212 10468 4225 10468 4223 10451 4216 10446
      4212 10449